createdAt,value
2019-05-11T00:00:53.591Z,5.00
2019-05-11T00:03:22.201Z,4.90
2019-05-11T00:05:51.158Z,5.13
2019-05-11T00:08:19.882Z,5.30
2019-05-11T00:10:48.539Z,4.80
2019-05-11T00:13:17.230Z,4.90
2019-05-11T00:15:46.108Z,4.80
2019-05-11T00:18:14.778Z,4.83
2019-05-11T00:20:43.456Z,5.87
2019-05-11T00:23:12.022Z,6.43
2019-05-11T00:25:40.745Z,6.90
2019-05-11T00:28:09.343Z,7.50
2019-05-11T00:30:37.903Z,5.40
2019-05-11T00:33:06.498Z,6.70
2019-05-11T00:35:35.060Z,6.00
2019-05-11T00:38:03.652Z,5.40
2019-05-11T00:40:32.246Z,5.90
2019-05-11T00:43:00.925Z,5.97
2019-05-11T00:45:29.519Z,6.10
2019-05-11T00:47:58.097Z,6.07
2019-05-11T00:50:38.616Z,5.70
2019-05-11T00:52:57.073Z,6.30
2019-05-11T00:55:25.794Z,7.30
2019-05-11T00:57:54.366Z,5.67
2019-05-11T01:00:23.258Z,6.63
2019-05-11T01:02:51.841Z,5.90
2019-05-11T01:05:20.501Z,6.70
2019-05-11T01:07:49.173Z,6.43
2019-05-11T01:10:25.455Z,6.53
2019-05-11T01:12:48.460Z,5.73
2019-05-11T01:15:17.117Z,6.07
2019-05-11T01:17:45.705Z,5.83
2019-05-11T01:20:14.720Z,6.00
2019-05-11T01:22:43.296Z,6.40
2019-05-11T01:25:11.999Z,6.13
2019-05-11T01:27:40.579Z,6.23
2019-05-11T01:30:10.489Z,6.93
2019-05-11T01:32:39.106Z,7.27
2019-05-11T01:35:08.288Z,5.73
2019-05-11T01:37:36.909Z,7.47
2019-05-11T01:40:07.031Z,7.13
2019-05-11T01:42:35.591Z,7.17
2019-05-11T01:45:06.005Z,7.30
2019-05-11T01:47:34.587Z,7.83
2019-05-11T01:50:03.189Z,19.33
2019-05-11T01:52:31.748Z,8.80
2019-05-11T01:55:00.324Z,8.30
2019-05-11T01:57:28.952Z,8.90
2019-05-11T01:59:57.537Z,8.60
2019-05-11T02:02:26.149Z,9.60
2019-05-11T02:04:56.341Z,11.10
2019-05-11T02:07:25.297Z,13.23
2019-05-11T02:09:53.865Z,12.00
2019-05-11T02:12:22.436Z,12.40
2019-05-11T02:14:51.070Z,11.80
2019-05-11T02:17:19.632Z,12.47
2019-05-11T02:19:48.273Z,12.33
2019-05-11T02:22:16.837Z,12.63
2019-05-11T02:24:45.560Z,13.23
2019-05-11T02:27:14.123Z,11.93
2019-05-11T02:29:42.704Z,11.37
2019-05-11T02:32:11.385Z,10.70
2019-05-11T02:34:39.945Z,10.30
2019-05-11T02:37:08.530Z,10.13
2019-05-11T02:39:37.132Z,11.30
2019-05-11T02:42:05.844Z,10.40
2019-05-11T02:44:34.406Z,9.73
2019-05-11T02:47:02.977Z,9.10
2019-05-11T02:49:31.556Z,10.10
2019-05-11T02:52:00.467Z,9.80
2019-05-11T02:54:29.357Z,8.67
2019-05-11T02:56:57.981Z,8.80
2019-05-11T02:59:29.870Z,8.80
2019-05-11T03:01:57.212Z,9.33
2019-05-11T03:04:25.880Z,8.37
2019-05-11T03:06:54.585Z,8.20
2019-05-11T03:09:23.175Z,9.33
2019-05-11T03:11:55.803Z,7.90
2019-05-11T03:14:22.087Z,8.67
2019-05-11T03:16:52.572Z,8.43
2019-05-11T03:19:21.168Z,8.63
2019-05-11T03:21:49.843Z,8.37
2019-05-11T03:24:18.441Z,8.57
2019-05-11T03:26:47.073Z,8.93
2019-05-11T03:29:15.693Z,7.73
2019-05-11T03:31:44.343Z,8.37
2019-05-11T03:34:12.921Z,8.60
2019-05-11T03:36:41.582Z,9.03
2019-05-11T03:39:10.194Z,9.50
2019-05-11T03:41:38.776Z,11.23
2019-05-11T03:44:07.413Z,10.30
2019-05-11T03:46:36.127Z,10.90
2019-05-11T03:49:04.729Z,10.60
2019-05-11T03:51:33.357Z,11.40
2019-05-11T03:54:01.964Z,10.17
2019-05-11T03:56:30.655Z,9.30
2019-05-11T03:58:59.270Z,9.50
2019-05-11T04:01:27.861Z,9.30
2019-05-11T04:03:56.454Z,9.60
2019-05-11T04:06:25.093Z,9.50
2019-05-11T04:08:53.882Z,10.10
2019-05-11T04:11:22.496Z,9.93
2019-05-11T04:13:51.093Z,10.27
2019-05-11T04:16:19.719Z,9.87
2019-05-11T04:18:48.328Z,8.63
2019-05-11T04:21:16.994Z,8.70
2019-05-11T04:23:45.641Z,8.27
2019-05-11T04:26:14.408Z,7.97
2019-05-11T04:28:43.039Z,8.20
2019-05-11T04:31:11.664Z,8.17
2019-05-11T04:33:40.354Z,6.70
2019-05-11T04:36:09.029Z,7.70
2019-05-11T04:38:37.641Z,7.37
2019-05-11T04:41:06.238Z,8.90
2019-05-11T04:43:34.879Z,8.57
2019-05-11T04:46:03.682Z,8.13
2019-05-11T04:48:32.260Z,8.47
2019-05-11T04:51:00.873Z,6.40
2019-05-11T04:53:29.472Z,6.73
2019-05-11T04:55:58.070Z,6.43
2019-05-11T04:58:26.704Z,7.73
2019-05-11T05:00:55.282Z,6.37
2019-05-11T05:03:38.462Z,7.37
2019-05-11T05:05:54.213Z,6.43
2019-05-11T05:08:26.460Z,5.60
2019-05-11T05:10:58.741Z,5.93
2019-05-11T05:13:29.613Z,5.70
2019-05-11T05:15:53.906Z,5.63
2019-05-11T05:18:22.574Z,5.60
2019-05-11T05:20:51.209Z,5.97
2019-05-11T05:23:19.880Z,4.60
2019-05-11T05:25:48.484Z,5.03
2019-05-11T05:28:17.165Z,4.97
2019-05-11T05:30:45.825Z,4.10
2019-05-11T05:33:14.448Z,4.10
2019-05-11T05:35:43.255Z,4.60
2019-05-11T05:38:11.849Z,3.70
2019-05-11T05:40:40.540Z,4.20
2019-05-11T05:43:09.236Z,4.13
2019-05-11T05:45:37.944Z,3.93
2019-05-11T05:48:06.591Z,4.33
2019-05-11T05:50:35.270Z,4.00
2019-05-11T05:53:03.941Z,4.80
2019-05-11T05:55:32.658Z,3.83
2019-05-11T05:58:01.340Z,4.60
2019-05-11T06:00:29.984Z,4.13
2019-05-11T06:02:58.565Z,4.30
2019-05-11T06:05:27.207Z,4.60
2019-05-11T06:07:55.876Z,3.90
2019-05-11T06:10:24.516Z,4.00
2019-05-11T06:12:53.260Z,4.30
2019-05-11T06:15:22.047Z,3.90
2019-05-11T06:17:50.689Z,3.87
2019-05-11T06:20:19.487Z,3.40
2019-05-11T06:22:48.226Z,3.53
2019-05-11T06:25:17.098Z,3.80
2019-05-11T06:27:45.815Z,3.57
2019-05-11T06:30:15.050Z,3.30
2019-05-11T06:32:43.815Z,2.93
2019-05-11T06:35:12.900Z,2.70
2019-05-11T06:37:41.544Z,3.10
2019-05-11T06:40:10.591Z,3.17
2019-05-11T06:42:39.217Z,2.70
2019-05-11T06:45:08.214Z,2.60
2019-05-11T06:47:36.854Z,2.70
2019-05-11T06:50:06.642Z,2.63
2019-05-11T06:52:35.313Z,2.40
2019-05-11T06:55:04.211Z,2.90
2019-05-11T06:57:32.966Z,2.00
2019-05-11T07:00:01.683Z,2.47
2019-05-11T07:02:30.482Z,2.10
2019-05-11T07:04:59.082Z,2.23
2019-05-11T07:07:27.727Z,1.90
2019-05-11T07:09:56.452Z,2.10
2019-05-11T07:12:27.618Z,2.33
2019-05-11T07:14:55.633Z,2.20
2019-05-11T07:17:24.268Z,1.93
2019-05-11T07:19:52.859Z,2.43
2019-05-11T07:22:21.561Z,1.70
2019-05-11T07:24:50.145Z,2.30
2019-05-11T07:27:18.791Z,1.70
2019-05-11T07:29:47.468Z,1.90
2019-05-11T07:32:24.809Z,1.50
2019-05-11T07:34:48.583Z,2.13
2019-05-11T07:37:18.565Z,2.20
2019-05-11T07:39:48.720Z,1.70
2019-05-11T07:42:18.086Z,1.23
2019-05-11T07:44:48.103Z,2.00
2019-05-11T07:47:18.657Z,1.50
2019-05-11T07:49:48.862Z,1.80
2019-05-11T07:52:18.245Z,1.60
2019-05-11T07:54:51.951Z,1.87
2019-05-11T07:57:18.670Z,1.70
2019-05-11T07:59:48.611Z,1.70
2019-05-11T08:02:17.853Z,1.33
2019-05-11T08:04:48.182Z,1.53
2019-05-11T08:07:18.132Z,1.20
2019-05-11T08:09:48.263Z,1.50
2019-05-11T08:12:19.216Z,1.60
2019-05-11T08:15:00.865Z,1.40
2019-05-11T08:17:18.696Z,1.57
2019-05-11T08:19:47.704Z,1.70
2019-05-11T08:22:20.435Z,1.30
2019-05-11T08:24:48.147Z,1.40
2019-05-11T08:27:18.691Z,1.47
2019-05-11T08:29:48.795Z,1.10
2019-05-11T08:32:18.316Z,1.50
2019-05-11T08:34:49.014Z,1.73
2019-05-11T08:37:18.942Z,1.50
2019-05-11T08:39:48.274Z,2.33
2019-05-11T08:42:17.890Z,1.50
2019-05-11T08:44:48.357Z,1.87
2019-05-11T08:47:17.753Z,1.13
2019-05-11T08:49:48.419Z,1.40
2019-05-11T08:52:18.626Z,1.77
2019-05-11T08:54:48.671Z,1.23
2019-05-11T08:57:18.063Z,1.50
2019-05-11T08:59:48.451Z,1.40
2019-05-11T09:02:18.569Z,1.40
2019-05-11T09:04:48.428Z,1.47
2019-05-11T09:07:18.417Z,2.33
2019-05-11T09:09:48.365Z,1.83
2019-05-11T09:12:18.341Z,1.67
2019-05-11T09:14:47.827Z,1.83
2019-05-11T09:17:18.250Z,2.17
2019-05-11T09:19:48.079Z,2.00
2019-05-11T09:22:18.694Z,2.10
2019-05-11T09:24:47.791Z,1.97
2019-05-11T09:27:18.392Z,2.10
2019-05-11T09:29:47.961Z,2.60
2019-05-11T09:32:17.977Z,2.40
2019-05-11T09:34:48.534Z,1.87
2019-05-11T09:37:18.393Z,1.83
2019-05-11T09:39:47.894Z,2.57
2019-05-11T09:42:17.977Z,2.47
2019-05-11T09:44:48.542Z,1.93
2019-05-11T09:47:18.970Z,2.50
2019-05-11T09:49:50.701Z,2.50
2019-05-11T09:52:18.495Z,2.10
2019-05-11T09:54:48.732Z,2.17
2019-05-11T09:57:18.525Z,2.10
2019-05-11T09:59:47.856Z,2.87
2019-05-11T10:02:20.720Z,2.10
2019-05-11T10:04:48.447Z,2.50
2019-05-11T10:07:18.111Z,2.33
2019-05-11T10:09:47.905Z,2.53
2019-05-11T10:12:18.110Z,2.63
2019-05-11T10:14:48.584Z,2.80
2019-05-11T10:17:18.212Z,2.50
2019-05-11T10:19:49.538Z,3.23
2019-05-11T10:22:18.573Z,2.70
2019-05-11T10:24:47.772Z,2.90
2019-05-11T10:27:18.729Z,2.60
2019-05-11T10:29:48.337Z,2.77
2019-05-11T10:32:18.294Z,2.20
2019-05-11T10:34:47.782Z,2.20
2019-05-11T10:37:17.691Z,2.13
2019-05-11T10:39:48.680Z,2.50
2019-05-11T10:42:18.011Z,2.80
2019-05-11T10:44:47.882Z,3.73
2019-05-11T10:47:18.417Z,3.97
2019-05-11T10:49:48.522Z,2.67
2019-05-11T10:52:18.008Z,2.20
2019-05-11T10:54:47.836Z,2.93
2019-05-11T10:57:18.830Z,2.50
2019-05-11T10:59:48.838Z,2.70
2019-05-11T11:02:18.525Z,2.67
2019-05-11T11:04:48.536Z,3.90
2019-05-11T11:07:19.510Z,2.67
2019-05-11T11:09:49.041Z,2.53
2019-05-11T11:12:18.714Z,3.77
2019-05-11T11:14:48.166Z,2.30
2019-05-11T11:17:18.962Z,2.50
2019-05-11T11:19:48.675Z,2.93
2019-05-11T11:22:35.736Z,3.00
2019-05-11T11:24:48.310Z,2.80
2019-05-11T11:27:18.483Z,3.63
2019-05-11T11:29:47.534Z,4.77
2019-05-11T11:32:18.266Z,2.70
2019-05-11T11:34:48.470Z,3.83
2019-05-11T11:37:17.566Z,3.30
2019-05-11T11:39:47.616Z,2.90
2019-05-11T11:42:17.888Z,4.20
2019-05-11T11:44:48.375Z,3.07
2019-05-11T11:47:21.418Z,3.20
2019-05-11T11:49:47.665Z,3.00
2019-05-11T11:52:18.641Z,3.40
2019-05-11T11:54:47.891Z,2.50
2019-05-11T11:57:18.170Z,2.80
2019-05-11T11:59:48.072Z,3.13
2019-05-11T12:02:19.088Z,3.80
2019-05-11T12:04:48.605Z,3.57
2019-05-11T12:07:17.927Z,3.00
2019-05-11T12:09:48.399Z,3.00
2019-05-11T12:12:18.623Z,2.97
2019-05-11T12:14:48.078Z,3.00
2019-05-11T12:17:18.227Z,3.07
2019-05-11T12:19:47.827Z,3.43
2019-05-11T12:22:18.772Z,3.17
2019-05-11T12:24:48.174Z,3.43
2019-05-11T12:27:18.233Z,3.50
2019-05-11T12:29:47.686Z,3.70
2019-05-11T12:32:20.960Z,3.80
2019-05-11T12:34:49.610Z,3.27
2019-05-11T12:37:20.237Z,3.70
2019-05-11T12:39:48.596Z,4.33
2019-05-11T12:42:17.962Z,2.93
2019-05-11T12:44:48.147Z,3.67
2019-05-11T12:47:23.972Z,3.13
2019-05-11T12:49:48.401Z,3.67
2019-05-11T12:52:18.515Z,3.43
2019-05-11T12:54:47.967Z,4.30
2019-05-11T12:57:18.697Z,3.70
2019-05-11T12:59:48.736Z,3.47
2019-05-11T13:02:18.464Z,4.00
2019-05-11T13:04:47.728Z,3.70
2019-05-11T13:07:19.569Z,3.43
2019-05-11T13:09:48.522Z,3.50
2019-05-11T13:12:18.625Z,3.37
2019-05-11T13:14:48.857Z,3.10
2019-05-11T13:17:18.629Z,4.10
2019-05-11T13:19:48.129Z,3.90
2019-05-11T13:22:18.323Z,4.00
2019-05-11T13:24:48.159Z,3.40
2019-05-11T13:27:17.913Z,3.83
2019-05-11T13:29:48.548Z,4.00
2019-05-11T13:32:18.552Z,3.70
2019-05-11T13:34:48.010Z,4.43
2019-05-11T13:37:18.819Z,3.60
2019-05-11T13:39:48.631Z,6.00
2019-05-11T13:42:19.480Z,4.27
2019-05-11T13:44:47.993Z,4.23
2019-05-11T13:47:18.084Z,4.87
2019-05-11T13:49:47.922Z,5.23
2019-05-11T13:52:18.049Z,3.90
2019-05-11T13:54:48.270Z,4.50
2019-05-11T13:57:18.203Z,4.37
2019-05-11T13:59:47.743Z,4.17
2019-05-11T14:02:18.102Z,4.90
2019-05-11T14:04:48.100Z,4.07
2019-05-11T14:07:18.636Z,4.47
2019-05-11T14:09:48.539Z,5.03
2019-05-11T14:12:18.244Z,4.30
2019-05-11T14:14:48.162Z,4.90
2019-05-11T14:17:18.636Z,5.10
2019-05-11T14:19:49.204Z,4.00
2019-05-11T14:22:18.003Z,5.00
2019-05-11T14:24:48.261Z,5.70
2019-05-11T14:27:17.959Z,4.70
2019-05-11T14:29:48.698Z,5.43
2019-05-11T14:32:17.252Z,5.77
2019-05-11T14:34:48.473Z,5.40
2019-05-11T14:37:18.071Z,5.33
2019-05-11T14:39:48.212Z,5.50
2019-05-11T14:42:21.899Z,5.67
2019-05-11T14:44:48.290Z,6.20
2019-05-11T14:47:17.878Z,6.53
2019-05-11T14:49:48.350Z,5.13
2019-05-11T14:52:18.810Z,6.27
2019-05-11T14:54:48.607Z,5.83
2019-05-11T14:57:18.652Z,4.77
2019-05-11T14:59:48.234Z,5.30
2019-05-11T15:02:35.147Z,5.20
2019-05-11T15:05:04.327Z,7.07
2019-05-11T15:07:32.957Z,5.87
2019-05-11T15:10:01.687Z,4.90
2019-05-11T15:12:30.308Z,5.87
2019-05-11T15:14:59.190Z,6.57
2019-05-11T15:17:28.308Z,6.53
2019-05-11T15:19:58.063Z,6.57
2019-05-11T15:22:28.718Z,6.50
2019-05-11T15:24:58.706Z,5.60
2019-05-11T15:27:28.926Z,4.90
2019-05-11T15:29:58.767Z,5.60
2019-05-11T15:32:28.490Z,5.57
2019-05-11T15:34:57.813Z,5.13
2019-05-11T15:37:28.414Z,6.57
2019-05-11T15:39:58.978Z,5.20
2019-05-11T15:42:28.863Z,5.43
2019-05-11T15:44:58.656Z,4.87
2019-05-11T15:47:28.331Z,4.60
2019-05-11T15:49:57.935Z,5.40
2019-05-11T15:52:26.751Z,6.43
2019-05-11T15:54:55.377Z,5.57
2019-05-11T15:57:24.168Z,6.33
2019-05-11T15:59:52.807Z,5.53
2019-05-11T16:02:21.463Z,6.20
2019-05-11T16:04:50.052Z,5.30
2019-05-11T16:07:18.981Z,5.47
2019-05-11T16:09:48.677Z,6.80
2019-05-11T16:12:18.155Z,7.47
2019-05-11T16:14:48.516Z,5.70
2019-05-11T16:17:17.293Z,8.50
2019-05-11T16:19:45.884Z,7.83
2019-05-11T16:22:17.674Z,6.57
2019-05-11T16:24:45.030Z,7.00
2019-05-11T16:27:13.608Z,7.20
2019-05-11T16:29:42.480Z,6.47
2019-05-11T16:32:11.078Z,6.60
2019-05-11T16:34:39.688Z,5.90
2019-05-11T16:37:10.197Z,5.57
2019-05-11T16:39:38.636Z,7.10
2019-05-11T16:42:08.515Z,7.37
2019-05-11T16:44:37.869Z,7.90
2019-05-11T16:47:07.917Z,6.53
2019-05-11T16:49:38.425Z,8.10
2019-05-11T16:52:07.823Z,6.70
2019-05-11T16:54:38.805Z,6.10
2019-05-11T16:57:08.597Z,6.00
2019-05-11T16:59:39.639Z,6.77
2019-05-11T17:02:08.319Z,6.70
2019-05-11T17:04:39.661Z,7.83
2019-05-11T17:07:07.578Z,8.33
2019-05-11T17:09:37.822Z,6.57
2019-05-11T17:12:08.602Z,8.13
2019-05-11T17:14:38.572Z,7.47
2019-05-11T17:17:08.168Z,5.50
2019-05-11T17:19:43.757Z,6.43
2019-05-11T17:22:08.327Z,6.47
2019-05-11T17:24:37.924Z,6.10
2019-05-11T17:27:08.808Z,6.57
2019-05-11T17:29:38.136Z,6.00
2019-05-11T17:32:08.549Z,6.00
2019-05-11T17:34:38.132Z,6.03
2019-05-11T17:37:08.905Z,6.17
2019-05-11T17:39:38.571Z,5.77
2019-05-11T17:42:08.973Z,6.17
2019-05-11T17:44:37.922Z,6.00
2019-05-11T17:47:08.403Z,7.20
2019-05-11T17:49:38.333Z,6.07
2019-05-11T17:52:08.102Z,5.30
2019-05-11T17:54:38.342Z,6.50
2019-05-11T17:57:07.205Z,5.00
2019-05-11T17:59:38.503Z,6.27
2019-05-11T18:02:06.294Z,5.77
2019-05-11T18:04:34.867Z,4.53
2019-05-11T18:07:03.465Z,4.37
2019-05-11T18:09:32.060Z,4.93
2019-05-11T18:12:00.630Z,5.10
2019-05-11T18:14:29.357Z,4.90
2019-05-11T18:16:59.031Z,5.20
2019-05-11T18:19:27.884Z,4.90
2019-05-11T18:21:57.756Z,5.07
2019-05-11T18:24:28.515Z,7.20
2019-05-11T18:26:58.959Z,10.50
2019-05-11T18:29:28.810Z,8.93
2019-05-11T18:31:57.976Z,8.53
2019-05-11T18:34:26.859Z,8.03
2019-05-11T18:36:57.698Z,15.37
2019-05-11T18:39:25.847Z,10.60
2019-05-11T18:41:54.471Z,6.87
2019-05-11T18:44:23.105Z,40.03
2019-05-11T18:46:51.775Z,7.90
2019-05-11T18:49:20.483Z,9.83
2019-05-11T18:51:49.093Z,5.20
2019-05-11T18:54:19.142Z,7.87
2019-05-11T18:56:48.835Z,7.97
2019-05-11T18:59:19.624Z,5.10
2019-05-11T19:01:48.475Z,4.80
2019-05-11T19:04:18.444Z,4.47
2019-05-11T19:06:48.435Z,5.00
2019-05-11T19:09:18.000Z,3.70
2019-05-11T19:11:48.883Z,3.80
2019-05-11T19:14:17.221Z,4.67
2019-05-11T19:16:45.897Z,3.83
2019-05-11T19:19:14.523Z,4.47
2019-05-11T19:21:43.128Z,4.17
2019-05-11T19:24:11.765Z,4.40
2019-05-11T19:26:40.372Z,6.10
2019-05-11T19:29:09.164Z,5.33
2019-05-11T19:31:38.577Z,4.80
2019-05-11T19:34:07.439Z,4.90
2019-05-11T19:36:38.075Z,4.90
2019-05-11T19:39:08.901Z,4.97
2019-05-11T19:41:37.802Z,4.70
2019-05-11T19:44:08.383Z,4.53
2019-05-11T19:46:38.791Z,4.23
2019-05-11T19:49:08.637Z,3.60
2019-05-11T19:51:42.249Z,5.30
2019-05-11T19:54:08.472Z,4.80
2019-05-11T19:56:38.388Z,4.50
2019-05-11T19:59:08.596Z,4.90
2019-05-11T20:01:37.502Z,3.73
2019-05-11T20:04:08.079Z,4.63
2019-05-11T20:06:38.530Z,4.00
2019-05-11T20:09:08.823Z,3.63
2019-05-11T20:11:38.367Z,2.60
2019-05-11T20:14:08.030Z,3.60
2019-05-11T20:16:36.763Z,3.30
2019-05-11T20:19:05.383Z,3.20
2019-05-11T20:21:34.033Z,3.10
2019-05-11T20:24:02.634Z,2.87
2019-05-11T20:26:31.268Z,4.13
2019-05-11T20:28:59.880Z,3.37
2019-05-11T20:31:28.527Z,3.40
2019-05-11T20:33:58.769Z,3.60
2019-05-11T20:36:27.363Z,3.60
2019-05-11T20:38:56.036Z,3.40
2019-05-11T20:41:24.622Z,3.80
2019-05-11T20:43:53.241Z,3.43
2019-05-11T20:46:21.906Z,3.03
2019-05-11T20:48:50.488Z,2.87
2019-05-11T20:51:32.863Z,2.40
2019-05-11T20:53:49.369Z,1.80
2019-05-11T20:56:18.015Z,2.70
2019-05-11T20:58:58.816Z,1.93
2019-05-11T21:01:28.674Z,1.70
2019-05-11T21:03:58.420Z,1.53
2019-05-11T21:06:29.469Z,1.40
2019-05-11T21:08:57.813Z,1.57
2019-05-11T21:11:26.483Z,1.00
2019-05-11T21:13:55.166Z,1.40
2019-05-11T21:16:23.847Z,1.60
2019-05-11T21:18:52.529Z,1.60
2019-05-11T21:21:21.115Z,1.93
2019-05-11T21:23:49.707Z,2.27
2019-05-11T21:26:18.903Z,1.20
2019-05-11T21:28:48.675Z,2.03
2019-05-11T21:31:18.548Z,1.70
2019-05-11T21:33:47.452Z,1.83
2019-05-11T21:36:17.971Z,1.40
2019-05-11T21:38:48.193Z,1.33
2019-05-11T21:41:17.146Z,1.90
2019-05-11T21:43:48.183Z,1.90
2019-05-11T21:46:18.125Z,1.90
2019-05-11T21:48:47.844Z,1.80
2019-05-11T21:51:18.111Z,1.70
2019-05-11T21:53:48.644Z,2.00
2019-05-11T21:56:18.723Z,1.70
2019-05-11T21:58:47.588Z,2.20
2019-05-11T22:01:18.385Z,2.00
2019-05-11T22:03:47.896Z,1.73
2019-05-11T22:06:16.708Z,1.97
2019-05-11T22:08:45.325Z,1.97
2019-05-11T22:11:14.277Z,1.70
2019-05-11T22:13:43.038Z,1.83
2019-05-11T22:16:11.657Z,1.83
2019-05-11T22:18:40.291Z,1.87
2019-05-11T22:21:08.903Z,2.23
2019-05-11T22:23:38.606Z,1.90
2019-05-11T22:26:07.835Z,1.80
2019-05-11T22:28:38.846Z,2.40
2019-05-11T22:31:07.854Z,1.83
2019-05-11T22:33:38.558Z,1.70
2019-05-11T22:36:06.871Z,1.67
2019-05-11T22:38:35.503Z,1.90
2019-05-11T22:41:04.202Z,1.40
2019-05-11T22:43:32.892Z,2.53
2019-05-11T22:46:01.505Z,1.90
2019-05-11T22:48:30.113Z,2.40
2019-05-11T22:50:58.747Z,2.03
2019-05-11T22:53:43.277Z,3.23
2019-05-11T22:55:57.859Z,2.67
2019-05-11T22:58:26.543Z,2.80
2019-05-11T23:00:55.151Z,3.83
2019-05-11T23:03:23.782Z,2.20
2019-05-11T23:05:52.382Z,2.17
2019-05-11T23:08:21.084Z,2.50
2019-05-11T23:10:50.125Z,2.13
2019-05-11T23:13:18.828Z,2.00
2019-05-11T23:15:47.844Z,2.03
2019-05-11T23:18:18.040Z,2.60
2019-05-11T23:20:47.855Z,2.67
2019-05-11T23:23:17.820Z,2.17
2019-05-11T23:25:46.524Z,2.47
2019-05-11T23:28:15.140Z,2.35
2019-05-11T23:30:43.747Z,2.03
2019-05-11T23:33:12.416Z,2.50
2019-05-11T23:35:41.000Z,2.03
2019-05-11T23:38:09.579Z,2.57
2019-05-11T23:40:38.276Z,1.90
2019-05-11T23:43:08.667Z,1.83
2019-05-11T23:45:38.202Z,2.10
2019-05-11T23:48:07.007Z,2.57
2019-05-11T23:50:35.584Z,2.20
2019-05-11T23:53:06.639Z,2.63
2019-05-11T23:55:34.737Z,2.70
2019-05-11T23:58:03.366Z,2.60
